• Join FlightAware (Why Join?)
  • Login
  • US Flag 
01:45PM EDT


 

Airport Tracker/Info


-or-


 

Live Flight TrackerFlight Track Log ✈ GJS3618 ✈ 23-Oct-2013 ✈ KOMA - KDEN

Flight Track Log - Related Links

Times and Time Zones

All times are in EDT time to prevent confusion due to time zone crossing. See the GJS3618 flight status page for this flight to view local times or setup timezone preferences in your user account.

Time Position Orientation Groundspeed Altitude Reporting Facility
EDT Latitude Longitude Course Direction KTS MPH feet Rate Location/Type
07:37AM 41.3186 -95.9003 270° West 148 170 1,600  Level Minneapolis Center
07:37AM 41.3206 -95.9000 North 149 171 1,700 1,860 Climbing Minneapolis Center
07:38AM 41.3525 -95.9406 316° Northwest 178 205 3,700 1,680 Climbing Minneapolis Center
07:38AM 41.3514 -95.9272 96° East 178 205 3,500 1,920 Descending Minneapolis Center
07:40AM 41.3550 -95.9997 274° West 194 223 5,800 2,520 Climbing Minneapolis Center
07:41AM 41.2408 -96.3912 278° West  Level Estimated
07:41AM 41.3558 -96.0939 271° West 207 238 8,700  Level Minneapolis Center
07:42AM 41.2682 -96.5117 287° West  Level FlightAware Approximate
07:42AM 41.3597 -96.1856 273° West 230 265 11,600  Level Minneapolis Center
07:43AM 41.2516 -96.6357 270° West  Level Estimated
07:43AM 41.3519 -96.2836 264° West 262 302 13,500  Level Minneapolis Center
07:44AM 41.3411 -96.3939 263° West 287 330 15,400 1,860 Climbing Minneapolis Center
07:45AM 41.3278 -96.5083 261° West 301 346 17,400 1,980 Climbing Minneapolis Center
07:46AM 41.3150 -96.6256 262° West 312 359 19,500 2,040 Climbing Minneapolis Center
07:47AM 41.3019 -96.7417 262° West 317 365 21,600 1,860 Climbing Minneapolis Center
07:48AM 41.2856 -96.8836 261° West 320 368 23,400 1,500 Climbing Minneapolis Center
07:49AM 41.2711 -97.0061 261° West 336 387 24,700 1,260 Climbing Minneapolis Center
07:50AM 41.2567 -97.1333 261° West 344 396 26,000 1,260 Climbing Minneapolis Center
07:51AM 41.2411 -97.2628 261° West 353 406 27,300 1,200 Climbing Minneapolis Center
07:52AM 41.2256 -97.3953 261° West 357 411 28,500 1,080 Climbing Minneapolis Center
07:53AM 41.2100 -97.5289 261° West 363 418 29,600 1,020 Climbing Minneapolis Center
07:54AM 41.1925 -97.6647 260° West 371 427 30,600 840 Climbing Minneapolis Center
07:55AM 41.1761 -97.8025 261° West 376 433 31,400 780 Climbing Minneapolis Center
07:56AM 41.1594 -97.9411 261° West 379 436 32,200 780 Climbing Minneapolis Center
07:57AM 41.1414 -98.0808 260° West 383 441 33,000 780 Climbing Minneapolis Center
07:58AM 41.1236 -98.2222 261° West 387 445 33,800 840 Climbing Minneapolis Center
07:59AM 41.1061 -98.3628 261° West 387 445 34,800 840 Climbing Minneapolis Center
08:00AM 41.0889 -98.4975 260° West 384 442 35,600 660 Climbing Minneapolis Center
08:01AM 41.0667 -98.6622 260° West 380 437 36,200 540 Climbing Minneapolis Center
08:02AM 41.0467 -98.8028 259° West 387 445 36,700 540 Climbing Minneapolis Center
08:03AM 41.0294 -98.9475 261° West 396 456 37,300 540 Climbing Minneapolis Center
08:04AM 41.0119 -99.0881 261° West 391 450 37,900 420 Climbing Minneapolis Center
08:05AM 41.0017 -99.1600 259° West 389 448 38,000 60 Climbing Denver Center
08:06AM 40.9822 -99.2997 260° West 385 443 38,000  Level Denver Center
08:07AM 40.9586 -99.4656 259° West 383 441 38,000  Level Denver Center
08:08AM 40.9383 -99.6011 259° West 378 435 38,000  Level Denver Center
08:09AM 40.9156 -99.7358 257° West 376 433 38,000  Level Denver Center
08:10AM 40.8983 -99.8561 259° West 382 440 38,000  Level Denver Center
08:11AM 40.8739 -100.0111 258° West 385 443 38,000  Level Denver Center
08:12AM 40.8528 -100.1453 258° West 389 448 38,000  Level Denver Center
08:13AM 40.8314 -100.2825 258° West 396 456 38,000  Level Denver Center
08:14AM 40.8058 -100.4406 258° West 394 453 38,000  Level Denver Center
08:15AM 40.7839 -100.5772 258° West 396 456 38,000  Level Denver Center
08:16AM 40.7589 -100.7225 257° West 398 458 38,000  Level Denver Center
08:17AM 40.7364 -100.8556 257° West 394 453 38,000  Level Denver Center
08:18AM 40.7156 -100.9900 258° West 388 447 38,000  Level Denver Center
08:19AM 40.6894 -101.1467 258° West 391 450 38,000  Level Denver Center
08:20AM 40.6669 -101.2833 258° West 396 456 38,000  Level Denver Center
08:21AM 40.6436 -101.4208 257° West 402 463 38,000  Level Denver Center
08:22AM 40.6167 -101.5822 258° West 404 465 38,000  Level Denver Center
08:23AM 40.5925 -101.7219 257° West 407 468 38,000 -300 Level Denver Center
08:24AM 40.5686 -101.8606 257° West 408 470 37,400 -1,140 Descending Denver Center
08:25AM 40.5397 -102.0206 257° West 403 464 35,800 -1,440 Descending Denver Center
08:26AM 40.5139 -102.1611 256° West 411 473 34,500 -1,380 Descending Denver Center
08:27AM 40.4900 -102.3000 257° West 409 471 33,100 -1,500 Descending Denver Center
08:28AM 40.4614 -102.4600 257° West 403 464 31,500 -1,440 Descending Denver Center
08:29AM 40.4358 -102.5978 256° West 404 465 30,200 -1,380 Descending Denver Center
08:30AM 40.4100 -102.7408 257° West 406 467 28,800 -1,440 Descending Denver Center
08:31AM 40.3853 -102.8783 257° West 392 451 27,400 -1,440 Descending Denver Center
08:32AM 40.3594 -103.0136 256° West 385 443 26,000 -1,380 Descending Denver Center
08:33AM 40.3353 -103.1458 257° West 376 433 24,600 -1,380 Descending Denver Center
08:34AM 40.3111 -103.2731 256° West 365 420 23,200 -1,380 Descending Denver Center
08:35AM 40.2875 -103.3994 256° West 359 413 21,800 -1,440 Descending Denver Center
08:36AM 40.2608 -103.5419 256° West 338 389 20,300 -1,380 Descending Denver Center
08:37AM 40.2381 -103.6594 256° West 333 383 19,000 -1,260 Descending Denver Center
08:38AM 40.2164 -103.7744 256° West 330 380 17,800 -1,080 Descending Denver Center
08:39AM 40.2019 -103.8789 260° West 295 339 16,900 -1,020 Descending Denver Center
08:40AM 40.2125 -103.9847 277° West 293 337 15,800 -1,140 Descending Denver Center
08:41AM 40.2222 -104.0886 277° West 287 330 14,700 -1,140 Descending Denver Center
08:42AM 40.2331 -104.1986 277° West 285 328 13,500 -1,140 Descending Denver Center
08:43AM 40.2381 -104.2978 274° West 276 318 12,400 -1,140 Descending Denver Center
08:44AM 40.2308 -104.4003 265° West 283 326 11,300 -1,140 Descending Denver Center
08:45AM 40.1911 -104.4911 240° Southwest 288 331 10,200 -1,080 Descending Denver Center
08:46AM 40.1450 -104.5753 234° Southwest 288 331 9,200 -1,080 Descending Denver Center
08:47AM 40.0742 -104.6328 212° Southwest 276 318 8,100 -720 Descending Denver Center
08:48AM 40.0178 -104.6714 208° Southwest 232 267 7,800 -720 Descending Denver Center
08:49AM 39.9656 -104.6864 192° South 195 224 6,700 -960 Descending Denver Center
08:50AM 39.9228 -104.6867 180° South 162 186 5,900 -660 Descending Denver Center
08:51AM 39.8864 -104.6867 180° South 133 153 5,400 -540 Descending Denver Center